Grizzly Flats, California
Current Conditions -  °F | °C
As of 4:35 AM on Monday 26 Jan 2015 (Local Time) from KPVF Reporting Station
Clear Clear  
Wind Chill: 14°   Ceiling: Unl
Heat Index: 14°   Visibility: 10mi
Dew Point:   Wind: 3mph
Humidity: 38%   Direction: 120°ESE
Pressure: 30.11"   Gusts: NA
Location:  38.63°N, 120.55°W
Report Text: KPVF 261235Z AUTO 12003KT 10SM CLR 14/00 A3011 RMK AO1
Loading
Personal Weather Stations






























Interactive Weather Map New forecast layout! Learn more

10-Day Weather Forecast

Advertisements
Track Severe Weather on mobile